KFRR

Front Royal-Warren County Airport

Front Royal, Virginia, USA
METAR KFRR 181515Z AUTO 18004KT 10SM CLR M03/M15 A3018 RMK AO1
Observed Flight Rules
Jan-18 @ 15:15 UTC (23 minutes ago) Visual Flight Rules
Wind Visibility Clouds
180° at 4 knots 10 miles
  • Clear skies
Temperatures Readings
Current -3°C / 27°F
Dewpoint -15°C / 5°F
Humidity 39%
Altimeter 30.18" Hg
Pressure 1022 hPa
Elevation 216
METAR KFRR 181515Z AUTO 18004KT 10SM CLR M03/M15 A3018 RMK AO1
Observed Flight Rules
Jan-18 @ 15:15 UTC
(23 minutes ago)
VFR
Wind Visibility
180° at 4 knots 10 miles
Clouds
  • Clear skies
Temperature Dewpoint
-3°C / 27°F -15°C / 5°F
Humidity Altimeter Pressure
39% 30.18" Hg 1022 hPa